Latest Weather Observations for Cato Island

IDQ60801

Issued at 2:21 pm EST Sunday 23 September 2018 (issued every 10 minutes, with the page automatically refreshed every 10 minutes)

About weather observations | Map of weather stations | Latest weather observations for QLD | Other Formats
Station Details ID: 200601 Name: CATO ISLAND Lat: -23.25 Lon: 155.54 Height: 6.3 m
Data from the previous 72 hours. | See also: Recent months for locations in Queensland
Date/Time
EST
Temp
°C
App
Temp
°C
Dew
Point
°C
Rel
Hum
%
Delta-T
°C
Wind Press
QNH
hPa
Press
MSL
hPa
Rain since
9am
mm
Dir  Spd
km/h
Gust
km/h
Spd
kts
Gust
kts
23/02:00pm 21.8 - - - - - 28 33 15 18 1019.7 1019.7 -
23/01:30pm 21.8 - - - - - 24 33 13 18 1020.0 - -
23/01:00pm 21.6 - - - - - 24 30 13 16 1020.2 1020.2 -
23/12:30pm 21.8 - - - - - 28 35 15 19 1020.5 - -
23/12:00pm 21.0 - - - - - 39 44 21 24 1020.8 1020.8 -
23/11:30am 21.2 - - - - - 33 39 18 21 1021.2 - -
23/11:00am 21.2 - - - - - 33 39 18 21 1021.7 1021.7 -
23/10:30am 21.2 - - - - - 37 43 20 23 1021.9 - -
23/10:00am 21.2 - - - - - 37 44 20 24 1022.1 1022.1 -
23/09:30am 21.6 - - - - - 41 46 22 25 1022.0 - -
23/09:00am 21.6 - - - - - 37 46 20 25 1022.1 1022.1 -
23/08:30am 21.3 - - - - - 32 37 17 20 1022.3 - -
23/08:00am 20.5 - - - - - 33 43 18 23 1022.3 1022.3 -
23/07:30am 20.3 - - - - - 39 46 21 25 1022.0 - -
23/07:00am 20.6 - - - - - 43 50 23 27 1021.6 1021.7 -
23/06:30am 20.9 - - - - - 26 33 14 18 1021.4 - -
23/06:00am 20.0 - - - - - 26 37 14 20 1021.4 1021.4 -
23/05:30am 19.0 - - - - - 39 46 21 25 1021.3 - -
23/05:00am 20.3 - - - - - 37 46 20 25 1020.8 1020.8 -
23/04:30am 20.7 - - - - - 32 37 17 20 1020.5 - -
23/04:00am 20.6 - - - - - 30 37 16 20 1020.5 1020.5 -
23/03:30am 20.6 - - - - - 28 32 15 17 1020.7 - -
23/03:00am 20.7 - - - - - 30 33 16 18 1020.9 1020.9 -
23/02:30am 20.6 - - - - - 30 35 16 19 1021.2 - -
23/02:00am 20.7 - - - - - 33 41 18 22 1021.4 1021.4 -
23/01:30am 20.9 - - - - - 37 46 20 25 1021.7 - -
23/01:00am 20.8 - - - - - 39 44 21 24 1021.8 1021.8 -
23/12:30am 21.0 - - - - - 37 44 20 24 1022.2 - -
23/12:00am 20.7 - - - - - 37 46 20 25 1022.6 1022.6 -
 
Date/Time
EST
Temp
°C
App
Temp
°C
Dew
Point
°C
Rel
Hum
%
Delta-T
°C
Wind Press
QNH
hPa
Press
MSL
hPa
Rain since
9am
mm
Dir  Spd
km/h
Gust
km/h
Spd
kts
Gust
kts
22/11:30pm 20.1 - - - - - 39 52 21 28 1022.9 - -
22/11:00pm 20.4 - - - - - 37 44 20 24 1023.0 1023.0 -
22/10:30pm 20.5 - - - - - 43 50 23 27 1023.1 - -
22/10:00pm 21.1 - - - - - 37 43 20 23 1023.0 1023.0 -
22/09:30pm 21.4 - - - - - 41 50 22 27 1022.9 - -
22/09:00pm 21.2 - - - - - 43 50 23 27 1023.0 1023.0 -
22/08:30pm 20.9 - - - - - 41 48 22 26 1023.1 - -
22/08:00pm 20.8 - - - - - 43 50 23 27 1022.9 1023.0 -
22/07:30pm 20.9 - - - - - 39 46 21 25 1022.7 - -
22/07:00pm 19.8 - - - - - 41 52 22 28 1022.4 1022.5 -
22/06:30pm 20.8 - - - - - 41 46 22 25 1022.1 - -
22/06:00pm 20.5 - - - - - 46 56 25 30 1021.8 1021.8 -
22/05:30pm 20.5 - - - - - 39 46 21 25 1021.7 - -
22/05:00pm 20.8 - - - - - 43 48 23 26 1021.4 1021.4 -
22/04:30pm 20.6 - - - - - 41 52 22 28 1021.2 - -
22/04:00pm 21.3 - - - - - 35 46 19 25 1021.0 1021.1 -
22/03:30pm 19.9 - - - - - 33 39 18 21 1021.0 - -
22/03:00pm 20.2 - - - - - 39 46 21 25 1020.8 1020.8 -
22/02:30pm 19.6 - - - - - 28 37 15 20 1021.1 - -
22/02:09pm 20.7 - - - - - 35 54 19 29 1021.2 - -
22/02:00pm 20.1 - - - - - 37 46 20 25 1021.3 1021.3 -
22/01:30pm 20.3 - - - - - 44 54 24 29 1021.5 - -
22/01:00pm 20.0 - - - - - 37 57 20 31 1021.6 1021.6 -
22/12:57pm 19.5 - - - - - 39 57 21 31 1021.8 - -
22/12:30pm 21.0 - - - - - 37 46 20 25 1021.7 - -
22/12:00pm 21.1 - - - - - 35 43 19 23 1022.1 1022.1 -
22/11:30am 21.2 - - - - - 41 50 22 27 1022.6 - -
22/11:00am 21.4 - - - - - 41 52 22 28 1022.9 1022.9 -
22/10:30am 21.7 - - - - - 41 46 22 25 1023.1 - -
22/10:00am 21.7 - - - - - 41 50 22 27 1023.4 1023.4 -
22/09:30am 21.3 - - - - - 41 54 22 29 1023.5 - -
22/09:00am 20.9 - - - - - 43 50 23 27 1023.7 1023.7 -
22/08:30am 21.1 - - - - - 41 46 22 25 1023.7 - -
22/08:00am 20.9 - - - - - 43 54 23 29 1023.7 1023.8 -
22/07:30am 20.8 - - - - - 39 52 21 28 1023.6 - -
22/07:00am 20.8 - - - - - 41 50 22 27 1023.5 1023.5 -
22/06:30am 20.7 - - - - - 41 50 22 27 1023.0 - -
22/06:00am 20.6 - - - - - 41 46 22 25 1022.6 1022.6 -
22/05:30am 20.5 - - - - - 43 50 23 27 1022.3 - -
22/05:00am 20.7 - - - - - 43 50 23 27 1021.9 1022.0 -
22/04:30am 20.6 - - - - - 44 52 24 28 1021.6 - -
22/04:00am 20.4 - - - - - 43 52 23 28 1021.4 1021.5 -
22/03:30am 20.6 - - - - - 44 54 24 29 1021.4 - -
22/03:00am 20.7 - - - - - 44 54 24 29 1021.4 1021.5 -
22/02:30am 20.9 - - - - - 44 54 24 29 1021.5 - -
22/02:00am 20.4 - - - - - 44 52 24 28 1021.6 1021.6 -
22/01:30am 20.7 - - - - - 39 52 21 28 1022.0 - -
22/01:00am 20.6 - - - - - 50 59 27 32 1022.0 1021.9 -
22/12:30am 21.0 - - - - - 46 54 25 29 1022.4 - -
22/12:00am 20.2 - - - - - 43 57 23 31 1022.7 1022.7 -
 
Date/Time
EST
Temp
°C
App
Temp
°C
Dew
Point
°C
Rel
Hum
%
Delta-T
°C
Wind Press
QNH
hPa
Press
MSL
hPa
Rain since
9am
mm
Dir  Spd
km/h
Gust
km/h
Spd
kts
Gust
kts
21/11:30pm 20.6 - - - - - 48 65 26 35 1022.7 - -
21/11:00pm 21.1 - - - - - 48 56 26 30 1022.9 1022.9 -
21/10:36pm 20.5 - - - - - 39 57 21 31 1023.0 - -
21/10:30pm 20.0 - - - - - 43 54 23 29 1023.2 - -
21/10:00pm 20.6 - - - - - 52 65 28 35 1023.1 1023.1 -
21/09:30pm 21.2 - - - - - 44 54 24 29 1022.9 - -
21/09:00pm 21.2 - - - - - 48 59 26 32 1022.7 1022.7 -
21/08:30pm 21.2 - - - - - 46 57 25 31 1022.5 - -
21/08:00pm 21.3 - - - - - 50 59 27 32 1022.2 1022.3 -
21/07:30pm 21.3 - - - - - 48 56 26 30 1021.9 - -
21/07:00pm 21.4 - - - - - 50 57 27 31 1021.4 1021.4 -
21/06:30pm 21.2 - - - - - 50 57 27 31 1020.9 - -
21/06:00pm 21.2 - - - - - 50 63 27 34 1020.5 1020.5 -
21/05:30pm 21.3 - - - - - 52 61 28 33 1020.1 - -
21/05:00pm 21.2 - - - - - 54 63 29 34 1019.7 1019.8 -
21/04:30pm 21.5 - - - - - 52 61 28 33 1019.4 - -
21/04:00pm 21.3 - - - - - 50 61 27 33 1019.3 1019.3 -
21/03:30pm 21.4 - - - - - 52 57 28 31 1019.1 - -
21/03:00pm 21.6 - - - - - 50 63 27 34 1018.8 1018.9 -
21/02:30pm 21.6 - - - - - 52 57 28 31 1018.6 - -
21/02:00pm 21.9 - - - - - 48 56 26 30 1018.8 1018.7 -
21/01:30pm 21.9 - - - - - 50 57 27 31 1018.7 - -
21/01:00pm 21.9 - - - - - 52 59 28 32 1018.9 1018.9 -
21/12:30pm 22.0 - - - - - 50 61 27 33 1019.0 - -
21/12:00pm 22.0 - - - - - 50 59 27 32 1019.2 1019.2 -
21/11:30am 21.9 - - - - - 52 61 28 33 1019.5 - -
21/11:00am 22.0 - - - - - 52 59 28 32 1019.7 1019.8 -
21/10:30am 22.1 - - - - - 54 61 29 33 1019.8 - -
21/10:00am 22.3 - - - - - 54 61 29 33 1019.7 1019.8 -
21/09:30am 21.9 - - - - - 56 63 30 34 1019.6 - -
21/09:00am 21.8 - - - - - 56 67 30 36 1019.6 1019.6 -
21/08:30am 22.4 - - - - - 44 50 24 27 1019.3 - -
21/08:00am 22.0 - - - - - 43 52 23 28 1019.0 1019.1 -
21/07:30am 21.4 - - - - - 46 54 25 29 1018.6 - -
21/07:00am 20.9 - - - - - 48 54 26 29 1018.2 1018.2 -
21/06:30am 19.3 - - - - - 44 56 24 30 1017.8 - -
21/06:16am 21.4 - - - - - 37 46 20 25 1017.6 - -
21/06:00am 22.3 - - - - - 7 9 4 5 1017.2 1017.3 -
21/05:30am 21.7 - - - - - 9 13 5 7 1017.0 - -
21/05:00am 21.6 - - - - - 13 15 7 8 1016.6 1016.6 -
21/04:30am 21.1 - - - - - 11 13 6 7 1016.4 - -
21/04:00am 21.2 - - - - - 11 13 6 7 1016.0 1016.1 -
21/03:30am 21.8 - - - - - 15 17 8 9 1016.0 - -
21/03:00am 21.8 - - - - - 15 19 8 10 1015.9 1015.9 -
21/02:30am 21.8 - - - - - 11 13 6 7 1016.0 - -
21/02:00am 21.1 - - - - - 9 11 5 6 1016.1 1016.0 -
21/01:30am 21.7 - - - - - 13 15 7 8 1016.3 - -
21/01:00am 21.5 - - - - - 11 13 6 7 1016.3 1016.3 -
21/12:30am 21.8 - - - - - 15 17 8 9 1015.9 - -
21/12:00am 21.9 - - - - - 22 26 12 14 1015.8 1015.8 -
 
Date/Time
EST
Temp
°C
App
Temp
°C
Dew
Point
°C
Rel
Hum
%
Delta-T
°C
Wind Press
QNH
hPa
Press
MSL
hPa
Rain since
9am
mm
Dir  Spd
km/h
Gust
km/h
Spd
kts
Gust
kts
20/11:30pm 22.0 - - - - - 26 28 14 15 1015.8 - -
20/11:00pm 21.9 - - - - - 22 28 12 15 1015.8 1015.8 -
20/10:30pm 22.0 - - - - - 20 24 11 13 1015.8 - -
20/10:00pm 21.9 - - - - - 15 19 8 10 1016.3 1016.3 -
20/09:30pm 21.9 - - - - - 11 15 6 8 1016.5 - -
20/09:00pm 21.4 - - - - - 9 9 5 5 1016.5 1016.6 -
20/08:30pm 21.3 - - - - - 6 7 3 4 1016.2 - -
20/08:00pm 20.7 - - - - - 6 7 3 4 1015.9 1015.9 -
20/07:30pm 21.2 - - - - - 6 7 3 4 1015.7 - -
20/07:00pm 21.5 - - - - - 7 11 4 6 1015.4 1015.5 -
20/06:30pm 21.6 - - - - - 11 13 6 7 1015.2 - -
20/06:00pm 21.8 - - - - - 13 17 7 9 1014.7 1014.7 -
20/05:30pm 22.1 - - - - - 13 19 7 10 1014.4 - -
20/05:00pm 23.1 - - - - - 15 19 8 10 1014.1 1014.2 -
20/04:30pm 24.1 - - - - - 13 15 7 8 1013.8 - -
20/04:00pm 24.6 - - - - - 15 20 8 11 1014.0 1014.0 -
20/03:30pm 25.0 - - - - - 17 20 9 11 1013.8 - -
20/03:00pm 24.8 - - - - - 17 20 9 11 1013.8 1013.8 -
20/02:30pm 25.5 - - - - - 15 20 8 11 1013.9 - -

Other Formats:

Comma delimited format used in spreadsheet applications
http://www.bom.gov.au/fwo/IDQ60801/IDQ60801.94394.axf

JavaScript Object Notation format (JSON) in row-major order
http://www.bom.gov.au/fwo/IDQ60801/IDQ60801.94394.json